Time;durP1;ratioP1;P1;durP2;ratioP2;P2;SDS_P1;SDS_P2;PMS_P1;PMS_P2;Temp;Humidity;BMP_temperature;BMP_pressure;BME280_temperature;BME280_humidity;BME280_pressure;Samples;Min_cycle;Max_cycle;Signal;HPM_P1;HPM_P2
2023/05/22 00:00:34;;;;;;;;;13.00;7.00;;;;;-146.67;32.23;74256.34;5082479;27;62748;-89
2023/05/22 00:03:02;;;;;;;;;11.25;10.00;;;;;-146.67;32.13;74260.34;5080959;28;62064;-90
2023/05/22 00:05:27;;;;;;;;;9.50;6.75;;;;;-146.67;32.21;74262.34;5115734;27;61977;-90
2023/05/22 00:07:53;;;;;;;;;7.75;7.50;;;;;-146.67;32.38;74262.34;5082523;28;62080;-88
2023/05/22 00:10:18;;;;;;;;;13.00;9.75;;;;;-146.67;32.61;74252.34;5079727;28;63960;-90
2023/05/22 00:12:44;;;;;;;;;4.67;4.67;;;;;-146.67;32.21;74248.38;5083185;28;62180;-88
2023/05/22 00:15:10;;;;;;;;;12.00;11.00;;;;;-146.67;32.36;74248.38;5098231;27;61915;-91
2023/05/22 00:17:36;;;;;;;;;11.50;10.00;;;;;-146.67;32.70;74260.34;5082087;28;61952;-90
2023/05/22 00:20:09;;;;;;;;;9.75;8.00;;;;;-146.67;32.36;74260.34;5098070;27;64799;-91
2023/05/22 00:22:35;;;;;;;;;0.00;0.00;;;;;-146.67;32.44;74266.34;5081944;28;61785;-90
2023/05/22 00:25:05;;;;;;;;;10.25;9.00;;;;;-146.67;32.33;74272.31;5083048;28;61671;-90
2023/05/22 00:27:31;;;;;;;;;11.00;8.25;;;;;-146.67;32.55;74268.31;5081544;28;62197;-90
2023/05/22 00:29:57;;;;;;;;;10.25;7.75;;;;;-146.67;32.42;74256.34;5082220;27;62145;-89
2023/05/22 00:32:22;;;;;;;;;4.00;4.00;;;;;-146.67;32.46;74254.34;5074423;28;61853;-89
2023/05/22 00:34:49;;;;;;;;;11.00;11.00;;;;;-146.67;32.51;74266.34;5061016;28;61873;-89
2023/05/22 00:37:14;;;;;;;;;12.75;9.00;;;;;-146.67;32.48;74274.31;5078462;28;61855;-89
2023/05/22 00:39:39;;;;;;;;;10.75;8.00;;;;;-146.67;32.77;74276.31;5062005;28;61887;-89
2023/05/22 00:42:05;;;;;;;;;6.50;6.50;;;;;-146.67;32.30;74288.28;5062605;28;61938;-89
2023/05/22 00:44:30;;;;;;;;;8.50;7.75;;;;;-146.67;32.60;74288.28;5060900;28;62226;-89
2023/05/22 00:46:56;;;;;;;;;9.50;8.00;;;;;-146.67;32.53;74288.28;5061690;28;61974;-89
2023/05/22 00:49:21;;;;;;;;;11.25;9.25;;;;;-146.67;32.47;74290.28;5061629;28;62195;-90
2023/05/22 00:51:47;;;;;;;;;9.00;9.00;;;;;-146.67;32.72;74306.25;5077896;28;61746;-89
2023/05/22 00:54:14;;;;;;;;;11.50;8.50;;;;;-146.67;33.12;74336.19;5061094;28;61938;-90
2023/05/22 00:56:40;;;;;;;;;11.50;9.25;;;;;-146.67;32.78;74368.16;5061349;28;61940;-90
2023/05/22 00:59:05;;;;;;;;;8.25;6.75;;;;;-146.67;32.84;74342.19;5060431;28;63749;-89
2023/05/22 01:01:32;;;;;;;;;11.00;9.00;;;;;-146.67;32.78;74332.22;5060168;28;62057;-89
2023/05/22 01:04:03;;;;;;;;;11.75;9.25;;;;;-146.67;32.47;74332.22;5062825;28;61859;-89
2023/05/22 01:06:30;;;;;;;;;11.50;7.25;;;;;-146.67;32.43;74342.19;5083273;28;61823;-90
2023/05/22 01:08:56;;;;;;;;;4.50;4.50;;;;;-146.67;32.41;74346.19;5084174;28;64578;-90
2023/05/22 01:11:27;;;;;;;;;10.25;8.75;;;;;-146.67;32.48;74356.16;5083851;28;62102;-90
2023/05/22 01:14:07;;;;;;;;;10.50;9.00;;;;;-146.67;32.75;74376.13;5084744;28;61718;-89
2023/05/22 01:16:45;;;;;;;;;14.00;11.25;;;;;-146.67;32.77;74394.09;5084058;28;61842;-90
2023/05/22 01:19:46;;;;;;;;;8.50;8.50;;;;;-146.67;32.75;74398.09;5100601;27;64992;-90
2023/05/22 01:22:26;;;;;;;;;4.75;4.75;;;;;-146.67;32.92;74404.09;5065270;28;62172;-90
2023/05/22 01:25:07;;;;;;;;;11.25;9.00;;;;;-146.67;32.74;74402.09;5098070;27;61748;-91
2023/05/22 01:27:47;;;;;;;;;9.50;9.50;;;;;-146.67;32.82;74396.09;5069313;28;61936;-91
2023/05/22 01:30:15;;;;;;;;;8.50;7.25;;;;;-146.67;32.82;74400.09;5083339;28;65153;-90
2023/05/22 01:32:45;;;;;;;;;10.50;9.25;;;;;-146.67;32.89;74400.09;5083469;28;61916;-90
2023/05/22 01:35:14;;;;;;;;;15.25;12.00;;;;;-146.67;32.83;74410.06;5085623;28;61849;-91
2023/05/22 01:37:41;;;;;;;;;13.00;9.50;;;;;-146.67;33.04;74416.06;5083878;28;61890;-90
2023/05/22 01:40:07;;;;;;;;;5.75;4.75;;;;;-146.67;33.10;74434.03;5084829;28;62788;-89
2023/05/22 01:42:33;;;;;;;;;6.50;5.50;;;;;-146.67;33.52;74450.00;5085208;27;61812;-90
2023/05/22 01:44:59;;;;;;;;;9.50;7.25;;;;;-146.67;33.60;74444.00;5084933;28;61983;-89
2023/05/22 01:47:24;;;;;;;;;9.50;8.75;;;;;-146.67;33.56;74457.97;5085064;28;61863;-90
2023/05/22 01:49:50;;;;;;;;;11.00;10.00;;;;;-146.67;33.65;74483.94;5084689;27;61786;-89
2023/05/22 01:52:42;;;;;;;;;11.00;9.25;;;;;-146.67;33.92;74487.94;5083720;28;62072;-89
2023/05/22 01:55:21;;;;;;;;;12.25;9.50;;;;;-146.67;33.91;74495.91;5083938;28;62165;-91
2023/05/22 01:58:30;;;;;;;;;8.75;8.75;;;;;-146.67;33.54;74499.91;5085471;28;61736;-90
2023/05/22 02:00:59;;;;;;;;;8.75;7.00;;;;;-146.67;33.77;74495.91;5083463;27;61714;-90
2023/05/22 02:03:30;;;;;;;;;9.75;8.75;;;;;-146.67;33.64;74493.91;5084841;27;61863;-90
2023/05/22 02:05:59;;;;;;;;;12.00;9.00;;;;;-146.67;33.99;74517.88;5081259;28;61752;-91
2023/05/22 02:08:25;;;;;;;;;13.25;8.75;;;;;-146.67;33.66;74513.88;5084059;27;61997;-90
2023/05/22 02:10:54;;;;;;;;;11.00;8.25;;;;;-146.67;33.61;74511.88;5083298;27;62029;-89
2023/05/22 02:13:20;;;;;;;;;10.25;7.75;;;;;-146.67;33.97;74517.88;5082947;28;61821;-90
2023/05/22 02:15:47;;;;;;;;;9.00;7.50;;;;;-146.67;33.96;74515.88;5083647;27;61875;-90
2023/05/22 02:18:13;;;;;;;;;9.75;8.00;;;;;-146.67;33.74;74503.91;5084310;27;61864;-90
2023/05/22 02:20:38;;;;;;;;;7.00;7.00;;;;;-146.67;33.57;74501.91;5083900;27;62228;-90
2023/05/22 02:23:04;;;;;;;;;12.75;8.00;;;;;-146.67;33.52;74493.91;5084439;27;61786;-89
2023/05/22 02:25:29;;;;;;;;;9.00;8.00;;;;;-146.67;33.39;74481.94;5084884;28;62320;-90
2023/05/22 02:27:55;;;;;;;;;10.25;7.75;;;;;-146.67;33.60;74473.97;5084314;28;61818;-89
2023/05/22 02:30:20;;;;;;;;;11.75;9.75;;;;;-146.67;33.40;74479.94;5084065;28;61799;-90
2023/05/22 02:32:46;;;;;;;;;10.00;8.75;;;;;-146.67;33.56;74485.94;5099891;27;62188;-90
2023/05/22 02:35:11;;;;;;;;;7.75;7.75;;;;;-146.67;33.60;74479.94;5084484;27;61959;-90
2023/05/22 02:37:37;;;;;;;;;5.00;4.25;;;;;-146.67;33.29;74465.97;5084516;28;61664;-89
2023/05/22 02:40:06;;;;;;;;;12.25;11.00;;;;;-146.67;33.43;74463.97;5083373;28;61977;-90
2023/05/22 02:42:31;;;;;;;;;12.00;7.75;;;;;-146.67;33.65;74503.91;5082586;28;62034;-90
2023/05/22 02:44:57;;;;;;;;;10.00;6.75;;;;;-146.67;33.64;74493.91;5099606;27;61987;-89
2023/05/22 02:47:22;;;;;;;;;6.50;6.50;;;;;-146.67;33.43;74485.94;5083583;28;61904;-89
2023/05/22 02:49:48;;;;;;;;;10.00;9.25;;;;;-146.67;33.66;74481.94;5081821;28;63738;-89
2023/05/22 02:52:14;;;;;;;;;9.50;8.50;;;;;-146.67;33.66;74501.91;5083892;28;61942;-90
2023/05/22 02:54:39;;;;;;;;;12.00;10.50;;;;;-146.67;33.54;74511.88;5084188;27;61991;-89
2023/05/22 02:57:04;;;;;;;;;10.75;8.50;;;;;-146.67;33.87;74513.88;5082271;28;61809;-90
2023/05/22 02:59:30;;;;;;;;;9.75;8.00;;;;;-146.67;33.91;74507.91;5083562;28;62078;-89
2023/05/22 03:01:56;;;;;;;;;8.25;8.25;;;;;-146.67;33.63;74533.84;5083783;28;62146;-90
2023/05/22 03:04:21;;;;;;;;;11.00;9.00;;;;;-146.67;33.83;74537.84;5084079;27;61730;-89
2023/05/22 03:06:47;;;;;;;;;9.00;8.00;;;;;-146.67;33.56;74523.88;5084118;27;61951;-89
2023/05/22 03:09:12;;;;;;;;;9.50;9.00;;;;;-146.67;33.81;74521.88;5083142;28;61893;-90
2023/05/22 03:11:37;;;;;;;;;10.00;10.00;;;;;-146.67;33.70;74537.84;5083668;28;62207;-89
2023/05/22 03:14:03;;;;;;;;;7.50;6.00;;;;;-146.67;33.97;74557.81;5083769;28;61847;-89
2023/05/22 03:16:28;;;;;;;;;6.75;6.50;;;;;-146.67;34.21;74563.78;5101729;27;61890;-89
2023/05/22 03:19:10;;;;;;;;;9.75;9.00;;;;;-146.67;34.14;74557.81;5103215;27;61809;-89
2023/05/22 03:21:36;;;;;;;;;8.75;8.50;;;;;-146.67;34.03;74535.84;5103875;27;61956;-89
2023/05/22 03:24:02;;;;;;;;;13.00;10.50;;;;;-146.67;33.76;74531.84;5102629;27;61846;-89
2023/05/22 03:26:27;;;;;;;;;11.25;10.00;;;;;-146.67;33.63;74515.88;5094146;27;61941;-89
2023/05/22 03:28:53;;;;;;;;;10.25;9.75;;;;;-146.67;33.60;74521.88;5081348;28;64761;-90
2023/05/22 03:31:19;;;;;;;;;10.50;9.50;;;;;-146.67;33.64;74525.88;5098741;27;62215;-89
2023/05/22 03:33:44;;;;;;;;;10.25;7.25;;;;;-146.67;33.74;74523.88;5083600;27;62314;-89
2023/05/22 03:36:09;;;;;;;;;5.00;4.75;;;;;-146.67;33.86;74517.88;5083690;28;61966;-88
2023/05/22 03:38:35;;;;;;;;;13.50;9.25;;;;;-146.67;33.65;74517.88;5082763;27;63257;-89
2023/05/22 03:41:00;;;;;;;;;13.25;10.00;;;;;-146.67;33.78;74529.84;5098771;27;61875;-90
2023/05/22 03:43:25;;;;;;;;;12.25;8.75;;;;;-146.67;33.74;74545.81;5083213;27;61956;-89
2023/05/22 03:45:51;;;;;;;;;13.25;9.00;;;;;-146.67;34.29;74557.81;5083637;27;62112;-89
2023/05/22 03:48:16;;;;;;;;;11.50;8.50;;;;;-146.67;34.18;74553.81;5081597;27;63184;-89
2023/05/22 03:50:42;;;;;;;;;17.00;10.50;;;;;-146.67;34.09;74555.81;5082160;28;62035;-90
2023/05/22 03:53:07;;;;;;;;;16.50;10.00;;;;;-146.67;34.45;74563.78;5083054;28;61862;-89
2023/05/22 03:55:33;;;;;;;;;11.00;10.00;;;;;-146.67;34.18;74559.81;5066201;28;61811;-90
2023/05/22 03:57:58;;;;;;;;;10.75;9.75;;;;;-146.67;34.16;74555.81;5062242;28;61941;-88
2023/05/22 04:00:23;;;;;;;;;10.50;10.50;;;;;-146.67;33.98;74557.81;5062633;28;61806;-89
2023/05/22 04:02:49;;;;;;;;;11.75;8.75;;;;;-146.67;34.29;74563.78;5062510;28;62375;-89
2023/05/22 04:05:15;;;;;;;;;13.00;9.50;;;;;-146.67;34.20;74567.78;5069837;28;62369;-90
2023/05/22 04:07:40;;;;;;;;;10.75;9.00;;;;;-146.67;33.97;74567.78;5082497;27;61960;-90
2023/05/22 04:10:06;;;;;;;;;10.25;9.25;;;;;-146.67;34.29;74573.78;5082514;28;61701;-89
2023/05/22 04:12:32;;;;;;;;;15.25;11.00;;;;;-146.67;34.69;74599.72;5098493;27;62548;-90
2023/05/22 04:14:57;;;;;;;;;10.00;8.75;;;;;-146.67;34.42;74593.75;5083325;28;61733;-89
2023/05/22 04:17:22;;;;;;;;;8.25;8.00;;;;;-146.67;34.56;74601.72;5081416;28;62064;-89
2023/05/22 04:19:48;;;;;;;;;9.25;9.25;;;;;-146.67;34.44;74595.75;5098499;27;62133;-89
2023/05/22 04:22:13;;;;;;;;;11.00;8.00;;;;;-146.67;34.49;74597.75;5082752;28;61850;-89
2023/05/22 04:24:38;;;;;;;;;11.75;9.50;;;;;-146.67;34.40;74589.75;5080628;28;62264;-89
2023/05/22 04:27:05;;;;;;;;;7.50;6.00;;;;;-146.67;34.53;74601.72;5082373;28;61753;-88
2023/05/22 04:29:30;;;;;;;;;10.00;10.00;;;;;-146.67;34.71;74595.75;5081770;28;61772;-89
2023/05/22 04:31:56;;;;;;;;;8.25;8.25;;;;;-146.67;34.28;74573.78;5079489;28;62190;-89
2023/05/22 04:34:21;;;;;;;;;12.25;10.25;;;;;-146.67;34.29;74571.78;5062307;28;61913;-89
2023/05/22 04:36:46;;;;;;;;;9.50;8.25;;;;;-146.67;34.45;74561.81;5061349;28;64675;-89
2023/05/22 04:39:13;;;;;;;;;16.00;10.25;;;;;-146.67;34.14;74535.84;5064549;28;62023;-88
2023/05/22 04:41:39;;;;;;;;;9.50;9.00;;;;;-146.67;34.11;74521.88;5065651;28;61850;-89
2023/05/22 04:44:06;;;;;;;;;11.50;9.00;;;;;-146.67;33.77;74507.91;5065887;28;61866;-89
2023/05/22 04:46:33;;;;;;;;;9.50;8.50;;;;;-146.67;33.83;74497.91;5080533;28;64080;-89
2023/05/22 04:49:00;;;;;;;;;14.25;9.75;;;;;-146.67;34.01;74509.88;5065011;28;61767;-89
2023/05/22 04:51:27;;;;;;;;;11.00;9.50;;;;;-146.67;33.98;74523.88;5065810;28;61889;-89
2023/05/22 04:53:54;;;;;;;;;9.50;9.50;;;;;-146.67;34.01;74519.88;5065357;28;61779;-89
2023/05/22 04:56:21;;;;;;;;;9.75;9.75;;;;;-146.67;33.98;74509.88;5065164;28;63080;-89
2023/05/22 04:58:48;;;;;;;;;8.75;7.25;;;;;-146.67;34.08;74511.88;5065730;28;61758;-89
2023/05/22 05:01:15;;;;;;;;;11.75;8.50;;;;;-146.67;33.85;74519.88;5065743;28;61740;-90
2023/05/22 05:03:40;;;;;;;;;10.75;10.50;;;;;-146.67;33.75;74525.88;5065593;28;62148;-90
2023/05/22 05:06:07;;;;;;;;;7.75;6.00;;;;;-146.67;33.77;74523.88;5079227;28;61687;-88
2023/05/22 05:08:32;;;;;;;;;12.50;9.25;;;;;-146.67;33.77;74507.91;5082834;27;62275;-86
2023/05/22 05:10:58;;;;;;;;;11.00;9.75;;;;;-146.67;33.52;74507.91;5082159;28;61860;-87
2023/05/22 05:13:23;;;;;;;;;13.50;10.75;;;;;-146.67;33.74;74503.91;5085311;27;62050;-88
2023/05/22 05:15:48;;;;;;;;;8.00;7.50;;;;;-146.67;33.78;74509.88;5084711;27;63027;-91
2023/05/22 05:18:14;;;;;;;;;12.75;10.25;;;;;-146.67;34.14;74513.88;5100914;27;61731;-91
2023/05/22 05:20:39;;;;;;;;;11.75;8.50;;;;;-146.67;33.88;74527.84;5084214;28;61919;-85
2023/05/22 05:23:05;;;;;;;;;15.75;9.75;;;;;-146.67;33.55;74527.84;5085343;27;61857;-87
2023/05/22 05:25:30;;;;;;;;;13.00;12.75;;;;;-146.67;34.28;74533.84;5100318;27;64819;-86
2023/05/22 05:27:56;;;;;;;;;15.25;10.50;;;;;-146.67;33.97;74531.84;5084120;28;61891;-87
2023/05/22 05:30:21;;;;;;;;;12.00;9.25;;;;;-146.67;34.03;74529.84;5084823;27;61999;-88
2023/05/22 05:32:47;;;;;;;;;8.00;8.00;;;;;-146.67;34.05;74525.88;5082967;28;61928;-89
2023/05/22 05:35:12;;;;;;;;;11.75;9.00;;;;;-146.67;34.10;74515.88;5084842;27;62020;-88
2023/05/22 05:37:38;;;;;;;;;12.00;11.00;;;;;-146.67;33.43;74499.91;5084704;28;61961;-89
2023/05/22 05:40:06;;;;;;;;;12.00;9.50;;;;;-146.67;33.83;74493.91;5084095;28;61841;-87
2023/05/22 05:42:36;;;;;;;;;13.50;11.25;;;;;-146.67;33.94;74479.94;5083141;28;61792;-89
2023/05/22 05:45:06;;;;;;;;;9.50;9.50;;;;;-146.67;33.63;74454.00;5097681;27;63292;-84
2023/05/22 05:47:32;;;;;;;;;10.50;10.00;;;;;-146.67;33.28;74440.00;5082299;28;62006;-85
2023/05/22 05:49:57;;;;;;;;;13.75;8.75;;;;;-146.67;33.16;74416.06;5083261;28;62468;-89
2023/05/22 05:52:25;;;;;;;;;12.25;9.25;;;;;-146.67;32.90;74410.06;5082805;28;62116;-88
2023/05/22 05:54:50;;;;;;;;;15.50;11.25;;;;;-146.67;33.32;74422.03;5083849;27;62190;-89
2023/05/22 05:57:16;;;;;;;;;11.50;8.00;;;;;-146.67;33.34;74450.00;5084674;27;61796;-85
2023/05/22 05:59:41;;;;;;;;;11.00;11.00;;;;;-146.67;33.45;74469.97;5083616;28;61906;-87
2023/05/22 06:02:07;;;;;;;;;5.25;5.25;;;;;-146.67;33.81;74491.94;5067165;27;62264;-85
2023/05/22 06:04:32;;;;;;;;;12.25;8.25;;;;;-146.67;33.91;74483.94;5083424;28;61906;-87
2023/05/22 06:06:57;;;;;;;;;8.00;8.00;;;;;-146.67;33.87;74459.97;5081886;28;61818;-86
2023/05/22 06:09:23;;;;;;;;;7.50;7.00;;;;;-146.67;33.38;74452.00;5082283;28;62101;-84
2023/05/22 06:11:48;;;;;;;;;10.00;5.75;;;;;-146.67;33.63;74483.94;5083743;28;62053;-86
2023/05/22 06:14:14;;;;;;;;;11.75;10.75;;;;;-146.67;33.94;74475.94;5081026;28;63910;-84
2023/05/22 06:16:39;;;;;;;;;14.25;11.50;;;;;-146.67;34.19;74505.91;5083473;27;62088;-84
2023/05/22 06:19:05;;;;;;;;;11.25;8.25;;;;;-146.67;33.84;74501.91;5081507;28;62348;-82
2023/05/22 06:21:30;;;;;;;;;11.00;11.00;;;;;-146.67;33.89;74491.94;5083322;28;61945;-85
2023/05/22 06:23:56;;;;;;;;;12.00;10.50;;;;;-146.67;33.94;74503.91;5081282;28;63596;-86
2023/05/22 06:26:22;;;;;;;;;12.25;10.50;;;;;-146.67;33.96;74485.94;5082262;28;62023;-87
2023/05/22 06:28:47;;;;;;;;;8.50;7.50;;;;;-146.67;34.04;74485.94;5084052;28;61988;-87
2023/05/22 06:31:13;;;;;;;;;11.25;9.00;;;;;-146.67;33.73;74465.97;5083530;27;61798;-84
2023/05/22 06:33:39;;;;;;;;;8.75;8.75;;;;;-146.67;33.56;74446.00;5083135;28;62053;-85
2023/05/22 06:36:07;;;;;;;;;10.50;8.25;;;;;-146.67;33.54;74426.03;5081572;28;61977;-85
2023/05/22 06:38:32;;;;;;;;;10.00;10.00;;;;;-146.67;33.21;74434.03;5082253;28;61685;-84
2023/05/22 06:40:58;;;;;;;;;11.00;9.00;;;;;-146.67;33.40;74416.06;5083986;28;61710;-85
2023/05/22 06:43:23;;;;;;;;;15.50;9.25;;;;;-146.67;33.33;74426.03;5081494;28;63849;-85
2023/05/22 06:45:49;;;;;;;;;12.75;9.50;;;;;-146.67;33.43;74420.06;5083860;28;61787;-85
2023/05/22 06:48:15;;;;;;;;;11.25;10.25;;;;;-146.67;33.24;74420.06;5080060;28;62026;-85
2023/05/22 06:50:41;;;;;;;;;10.50;9.50;;;;;-146.67;33.27;74426.03;5083397;27;61959;-84
2023/05/22 06:53:06;;;;;;;;;11.00;11.00;;;;;-146.67;33.34;74428.03;5082493;27;62170;-85
2023/05/22 06:55:32;;;;;;;;;10.00;9.00;;;;;-146.67;33.12;74436.03;5082068;28;62463;-85
2023/05/22 06:57:57;;;;;;;;;15.75;9.50;;;;;-146.67;33.30;74436.03;5064040;28;61769;-85
2023/05/22 07:00:22;;;;;;;;;10.00;9.00;;;;;-146.67;33.26;74404.09;5061692;28;61795;-86
2023/05/22 07:02:48;;;;;;;;;11.75;9.75;;;;;-146.67;33.04;74408.06;5073028;27;61833;-85
2023/05/22 07:05:13;;;;;;;;;16.00;9.50;;;;;-146.67;33.35;74412.06;5075961;27;61860;-86
2023/05/22 07:07:39;;;;;;;;;10.75;8.00;;;;;-146.67;33.23;74370.16;5083486;28;62041;-85
2023/05/22 07:10:05;;;;;;;;;17.75;10.25;;;;;-146.67;32.89;74364.16;5083525;28;61823;-85
2023/05/22 07:12:31;;;;;;;;;11.50;9.00;;;;;-146.67;32.97;74340.19;5081262;28;64127;-85
2023/05/22 07:14:58;;;;;;;;;9.75;8.25;;;;;-146.67;32.67;74326.22;5078234;28;62145;-84
2023/05/22 07:17:24;;;;;;;;;12.75;10.75;;;;;-146.67;32.88;74348.19;5061791;28;61846;-84
2023/05/22 07:19:49;;;;;;;;;13.50;8.75;;;;;-146.67;33.01;74328.22;5064591;28;61942;-84
2023/05/22 07:22:15;;;;;;;;;11.75;9.50;;;;;-146.67;32.54;74318.25;5081119;28;63399;-85
2023/05/22 07:24:40;;;;;;;;;8.75;7.75;;;;;-146.67;32.77;74306.25;5083241;28;61793;-85
2023/05/22 07:27:05;;;;;;;;;9.75;6.50;;;;;-146.67;32.10;74278.31;5083068;28;61783;-85
2023/05/22 07:29:31;;;;;;;;;9.75;9.25;;;;;-146.67;32.51;74306.25;5098590;27;61753;-85
2023/05/22 07:31:56;;;;;;;;;11.50;11.50;;;;;-146.67;32.64;74324.22;5081952;27;62929;-85
2023/05/22 07:34:22;;;;;;;;;12.75;10.00;;;;;-146.67;32.42;74322.22;5075285;28;62026;-85
2023/05/22 07:36:48;;;;;;;;;10.25;9.00;;;;;-146.67;32.51;74314.25;5062701;28;61881;-85
2023/05/22 07:39:13;;;;;;;;;6.75;6.00;;;;;-146.67;32.66;74318.25;5061746;28;62499;-85
2023/05/22 07:41:39;;;;;;;;;14.75;9.50;;;;;-146.67;32.63;74262.34;5077371;28;64679;-85
2023/05/22 07:44:05;;;;;;;;;4.25;4.25;;;;;-146.67;31.82;74240.38;5061418;28;61905;-85
2023/05/22 07:46:31;;;;;;;;;9.00;7.75;;;;;-146.67;32.30;74212.44;5074093;28;61724;-79
2023/05/22 07:48:56;;;;;;;;;12.25;10.75;;;;;-146.67;31.83;74182.50;5082569;28;61755;-84
2023/05/22 07:51:22;;;;;;;;;11.75;11.00;;;;;-146.67;31.98;74198.47;5077127;28;63774;-85
2023/05/22 07:53:47;;;;;;;;;10.75;8.50;;;;;-146.67;31.86;74208.44;5062219;28;62192;-85
2023/05/22 07:56:12;;;;;;;;;11.50;9.00;;;;;-146.67;31.91;74218.41;5062363;28;61885;-85
2023/05/22 07:58:38;;;;;;;;;2.00;2.00;;;;;-146.67;31.70;74196.47;5061045;28;61826;-85
2023/05/22 08:01:06;;;;;;;;;10.00;10.00;;;;;-146.67;31.74;74176.50;5061480;28;62030;-85
2023/05/22 08:03:31;;;;;;;;;11.00;10.25;;;;;-146.67;31.73;74176.50;5079420;27;62047;-85
2023/05/22 08:05:57;;;;;;;;;10.00;5.25;;;;;-146.67;31.83;74206.44;5074159;28;62597;-85
2023/05/22 08:08:22;;;;;;;;;14.00;9.75;;;;;-146.67;31.67;74176.50;5099176;27;62286;-83
2023/05/22 08:10:48;;;;;;;;;15.00;10.00;;;;;-146.67;32.02;74184.47;5089039;27;62892;-84
2023/05/22 08:13:15;;;;;;;;;11.00;11.00;;;;;-146.67;32.10;74172.50;5091063;27;62104;-84
2023/05/22 08:15:41;;;;;;;;;0.00;0.00;;;;;-146.67;31.63;74168.50;5091324;27;62338;-85
2023/05/22 08:18:06;;;;;;;;;11.75;8.00;;;;;-146.67;31.56;74140.56;5091765;27;61894;-86
2023/05/22 08:20:32;;;;;;;;;10.50;8.75;;;;;-146.67;31.74;74136.56;5083097;27;62867;-85
2023/05/22 08:22:58;;;;;;;;;14.00;10.75;;;;;-146.67;31.81;74140.56;5082243;28;61965;-85
2023/05/22 08:25:23;;;;;;;;;13.25;10.25;;;;;-146.67;31.37;74128.59;5080395;27;62288;-86
2023/05/22 08:27:48;;;;;;;;;12.25;11.25;;;;;-146.67;31.59;74100.63;5080252;27;63194;-85
2023/05/22 08:30:14;;;;;;;;;8.75;8.75;;;;;-146.67;31.08;74092.66;5090408;27;61909;-85
2023/05/22 08:32:39;;;;;;;;;9.00;9.00;;;;;-146.67;31.77;74132.56;5102884;27;61685;-86
2023/05/22 08:35:05;;;;;;;;;0.00;0.00;;;;;-146.67;31.32;74108.63;5091954;27;61880;-85
2023/05/22 08:37:31;;;;;;;;;0.00;0.00;;;;;-146.67;31.64;74100.63;5082740;28;61862;-85
2023/05/22 08:39:56;;;;;;;;;0.00;0.00;;;;;-146.67;31.45;74096.66;5081796;28;62930;-85
2023/05/22 08:42:21;;;;;;;;;14.50;11.25;;;;;-146.67;31.19;74046.75;5082080;28;62187;-85
2023/05/22 08:44:47;;;;;;;;;0.00;0.00;;;;;-146.67;31.11;73996.84;5081599;28;61821;-85
2023/05/22 08:47:13;;;;;;;;;0.00;0.00;;;;;-146.67;30.61;73986.84;5081922;28;61823;-85
2023/05/22 08:49:39;;;;;;;;;6.33;4.33;;;;;-146.67;30.84;73968.88;5081491;28;62041;-85
2023/05/22 08:52:20;;;;;;;;;0.00;0.00;;;;;-146.67;30.65;73984.84;5082288;28;61803;-85
2023/05/22 08:54:51;;;;;;;;;0.00;0.00;;;;;-146.67;30.74;73958.91;5081977;28;61821;-85
2023/05/22 08:57:18;;;;;;;;;0.00;0.00;;;;;-146.67;30.68;73948.94;5098192;27;61848;-85
2023/05/22 08:59:44;;;;;;;;;0.00;0.00;;;;;-146.67;30.85;73942.94;5084849;27;63242;-85
2023/05/22 09:02:12;;;;;;;;;0.00;0.00;;;;;-146.67;30.57;73911.00;5102414;27;62066;-85
2023/05/22 09:04:40;;;;;;;;;1.00;1.00;;;;;-146.67;30.17;73885.06;5093003;27;61855;-85
2023/05/22 09:07:05;;;;;;;;;0.00;0.00;;;;;-146.67;30.26;73869.09;5081922;28;62080;-85
2023/05/22 09:09:37;;;;;;;;;0.00;0.00;;;;;-146.67;30.34;73861.09;5081340;28;62129;-86
2023/05/22 09:12:08;;;;;;;;;14.00;12.50;;;;;-146.67;30.06;73875.06;5097199;27;61898;-85
2023/05/22 09:14:41;;;;;;;;;0.00;0.00;;;;;-146.67;30.55;73887.03;5081682;28;61845;-85
2023/05/22 09:17:14;;;;;;;;;0.00;0.00;;;;;-146.67;30.54;73903.00;5092813;27;61836;-84
2023/05/22 09:19:46;;;;;;;;;1.00;1.00;;;;;-146.67;30.60;73913.00;5061143;28;63035;-85
2023/05/22 09:22:12;;;;;;;;;13.25;13.00;;;;;-146.67;30.41;73907.00;5061167;28;61971;-84
2023/05/22 09:24:40;;;;;;;;;0.00;0.00;;;;;-146.67;30.54;73883.06;5077052;28;61876;-84
2023/05/22 09:27:07;;;;;;;;;0.00;0.00;;;;;-146.67;30.02;73837.16;5076546;28;61895;-85
2023/05/22 09:29:47;;;;;;;;;0.00;0.00;;;;;-146.67;30.29;73813.19;5084271;28;61991;-84
2023/05/22 09:32:13;;;;;;;;;0.00;0.00;;;;;-146.67;29.92;73725.38;5087496;27;62009;-85
2023/05/22 09:34:39;;;;;;;;;0.00;0.00;;;;;-146.67;29.48;73733.34;5084719;27;61922;-85
2023/05/22 09:37:04;;;;;;;;;0.00;0.00;;;;;-146.67;29.57;73731.34;5084915;28;61914;-84
2023/05/22 09:39:46;;;;;;;;;0.00;0.00;;;;;-146.67;29.69;73729.34;5079655;28;63636;-85
2023/05/22 09:42:15;;;;;;;;;0.00;0.00;;;;;-146.67;29.40;73735.34;5064480;28;61805;-85
2023/05/22 09:44:43;;;;;;;;;0.00;0.00;;;;;-146.67;29.62;73687.44;5064552;28;61874;-85
2023/05/22 09:47:08;;;;;;;;;0.00;0.00;;;;;-146.67;29.13;73671.47;5064151;28;61840;-85
2023/05/22 09:49:44;;;;;;;;;0.00;0.00;;;;;-146.67;29.05;73683.44;5064028;28;61865;-85
2023/05/22 09:52:13;;;;;;;;;0.33;0.33;;;;;-146.67;29.24;73699.41;5064253;28;61763;-87
2023/05/22 09:54:49;;;;;;;;;0.00;0.00;;;;;-146.67;29.37;73685.44;5079365;27;62084;-87
2023/05/22 09:57:19;;;;;;;;;0.00;0.00;;;;;-146.67;29.03;73655.50;5084528;28;61869;-88
2023/05/22 09:59:52;;;;;;;;;1.00;1.00;;;;;-146.67;29.18;73697.41;5083805;27;61950;-85
2023/05/22 10:02:21;;;;;;;;;0.00;0.00;;;;;-146.67;29.41;73697.41;5087957;27;61922;-86
2023/05/22 10:04:51;;;;;;;;;0.00;0.00;;;;;-146.67;29.13;73693.44;5092112;27;62011;-87
2023/05/22 10:07:20;;;;;;;;;0.00;0.00;;;;;-146.67;29.29;73689.44;5099344;27;61781;-87
2023/05/22 10:09:51;;;;;;;;;0.00;0.00;;;;;-146.67;29.38;73681.44;5084250;27;62278;-87
2023/05/22 10:12:20;;;;;;;;;0.00;0.00;;;;;-146.67;29.34;73683.44;5097368;27;63466;-87
2023/05/22 10:14:46;;;;;;;;;0.00;0.00;;;;;-146.67;29.41;73687.44;5096055;27;62082;-86
2023/05/22 10:17:12;;;;;;;;;7.00;1.00;;;;;-146.67;29.56;73721.38;5083901;28;61815;-87
2023/05/22 10:19:39;;;;;;;;;0.00;0.00;;;;;-146.67;29.62;73691.44;5084075;28;62137;-87
2023/05/22 10:22:06;;;;;;;;;10.67;10.67;;;;;-146.67;29.40;73685.44;5064579;28;61977;-87
2023/05/22 10:24:32;;;;;;;;;0.00;0.00;;;;;-146.67;29.60;73683.44;5064129;28;61890;-88
2023/05/22 10:26:58;;;;;;;;;1.00;0.00;;;;;-146.67;29.26;73645.53;5081464;27;61975;-87
2023/05/22 10:29:30;;;;;;;;;0.00;0.00;;;;;-146.67;29.44;73599.63;5091755;27;61856;-86
2023/05/22 10:32:04;;;;;;;;;0.00;0.00;;;;;-146.67;29.14;73569.66;5090624;27;61845;-85
2023/05/22 10:34:39;;;;;;;;;0.00;0.00;;;;;-146.67;28.86;73577.66;5089934;27;61955;-87
2023/05/22 10:37:40;;;;;;;;;1.00;1.00;;;;;-146.67;29.04;73613.59;5082676;28;61798;-87
2023/05/22 10:40:13;;;;;;;;;0.00;0.00;;;;;-146.67;29.26;73615.59;5083640;28;62130;-87
2023/05/22 10:42:39;;;;;;;;;0.00;0.00;;;;;-146.67;29.47;73603.59;5081330;28;62378;-87
2023/05/22 10:45:09;;;;;;;;;0.00;0.00;;;;;-146.67;29.06;73561.69;5082780;28;62038;-86
2023/05/22 10:47:35;;;;;;;;;0.00;0.00;;;;;-146.67;28.95;73561.69;5082459;28;61989;-88
2023/05/22 10:50:10;;;;;;;;;2.33;2.33;;;;;-146.67;29.24;73603.59;5081472;28;63180;-87
2023/05/22 10:52:37;;;;;;;;;1.00;1.00;;;;;-146.67;29.63;73645.53;5083369;28;61935;-86
2023/05/22 10:55:09;;;;;;;;;3.33;1.00;;;;;-146.67;29.75;73615.59;5082148;28;62226;-87
2023/05/22 10:57:39;;;;;;;;;5.33;3.00;;;;;-146.67;29.64;73641.53;5090996;27;62180;-88
2023/05/22 11:00:12;;;;;;;;;0.00;0.00;;;;;-146.67;29.60;73633.53;5092701;27;61947;-87
2023/05/22 11:02:45;;;;;;;;;0.33;0.33;;;;;-146.67;29.84;73649.50;5080742;28;62078;-87
2023/05/22 11:05:30;;;;;;;;;1.00;1.00;;;;;-146.67;29.92;73641.53;5081074;27;61932;-87
2023/05/22 11:08:34;;;;;;;;;0.00;0.00;;;;;-146.67;29.65;73587.63;5099571;27;61851;-86
2023/05/22 11:11:10;;;;;;;;;0.33;0.33;;;;;-146.67;29.21;73515.78;5059564;28;64828;-87
2023/05/22 11:13:35;;;;;;;;;2.00;2.00;;;;;-146.67;28.98;73483.84;5060449;28;62603;-87